Time;durP1;ratioP1;P1;durP2;ratioP2;P2;SDS_P1;SDS_P2;PMS_P1;PMS_P2;Temp;Humidity;BMP_temperature;BMP_pressure;BME280_temperature;BME280_humidity;BME280_pressure;Samples;Min_cycle;Max_cycle;Signal;HPM_P1;HPM_P2
2021/12/02 01:39:51;;;;;;;56.35;48.65;;;;;;;2.22;63.31;98992.03;4978603;28;20529;-85
2021/12/02 01:43:20;;;;;;;;;;;;;;;;;;;;;
2021/12/02 01:46:14;;;;;;;;;;;;;;;2.16;63.83;98996.38;4921591;29;20139;-86
2021/12/02 01:49:29;;;;;;;;;;;;;;;;;;;;;
2021/12/02 02:05:40;;;;;;;53.70;48.10;;;;;;;1.86;64.47;99000.41;4960557;29;20062;-87
2021/12/02 02:09:20;;;;;;;52.30;47.33;;;;;;;1.61;63.76;98978.06;4897494;28;20039;-88
2021/12/02 02:12:06;;;;;;;52.30;47.03;;;;;;;1.89;64.39;99048.47;4957421;28;20042;-87
2021/12/02 02:15:30;;;;;;;;;;;;;;;;;;;;;
2021/12/02 02:22:22;;;;;;;52.97;47.70;;;;;;;1.81;64.17;99070.63;4964766;28;20107;-86
2021/12/02 02:25:44;;;;;;;53.95;48.33;;;;;;;1.80;64.19;99085.00;4962101;28;20026;-85
2021/12/02 02:28:50;;;;;;;;;;;;;;;;;;;;;
2021/12/02 02:46:08;;;;;;;54.00;48.58;;;;;;;1.79;64.41;99118.81;4958135;29;20035;-87
2021/12/02 03:08:54;;;;;;;51.60;46.60;;;;;;;1.73;64.84;99140.91;4956345;28;20089;-87
2021/12/02 03:22:42;;;;;;;52.83;47.60;;;;;;;1.30;66.00;99114.63;4971504;28;20035;-87
2021/12/02 03:25:44;;;;;;;52.03;46.90;;;;;;;1.50;66.55;99164.97;4912065;29;20051;-87
2021/12/02 03:39:17;;;;;;;;;;;;;;;;;;;;;
2021/12/02 04:07:07;;;;;;;53.22;47.60;;;;;;;1.35;73.46;99221.81;4999516;23;20062;-86
2021/12/02 04:33:44;;;;;;;50.45;45.85;;;;;;;1.14;73.48;99260.94;4890039;29;20576;-87
2021/12/02 04:40:01;;;;;;;51.42;46.53;;;;;;;1.05;71.14;99271.19;4924582;29;20054;-87
2021/12/02 04:56:43;;;;;;;113.63;57.97;;;;;;;0.97;67.79;99303.38;5117286;23;20153;-87
2021/12/02 05:10:11;;;;;;;51.05;46.28;;;;;;;0.92;64.88;99297.53;4919129;29;20047;-86
2021/12/02 05:13:36;;;;;;;;;;;;;;;;;;;;;
2021/12/02 05:59:52;;;;;;;56.92;48.38;;;;;;;0.76;63.48;99342.44;4971795;28;20114;-84
2021/12/02 06:02:20;;;;;;;51.67;46.70;;;;;;;0.74;63.66;99349.22;4973732;29;20091;-85
2021/12/02 06:04:50;;;;;;;51.25;46.35;;;;;;;0.80;63.71;99369.41;4938863;29;20086;-85
2021/12/02 06:07:16;;;;;;;53.30;47.80;;;;;;;0.69;63.56;99351.78;4946074;28;20050;-83
2021/12/02 06:09:41;;;;;;;51.43;46.63;;;;;;;0.69;64.25;99377.09;4961955;28;20106;-84
2021/12/02 06:12:06;;;;;;;53.97;47.93;;;;;;;0.80;64.79;99392.19;4958506;28;20023;-85
2021/12/02 06:14:32;;;;;;;52.17;46.90;;;;;;;0.82;64.31;99393.00;4957185;28;20011;-84
2021/12/02 06:16:57;;;;;;;51.03;46.60;;;;;;;0.76;64.70;99393.88;4957238;28;20019;-86
2021/12/02 06:19:23;;;;;;;53.07;47.47;;;;;;;0.74;65.02;99410.78;4954036;28;20030;-84
2021/12/02 06:21:51;;;;;;;52.40;47.13;;;;;;;0.78;65.48;99401.47;4954246;28;20027;-85
2021/12/02 06:24:17;;;;;;;51.38;46.30;;;;;;;0.59;65.23;99394.06;4947266;29;20065;-84
2021/12/02 06:26:43;;;;;;;51.55;46.65;;;;;;;0.80;65.78;99427.63;4952957;28;20019;-84
2021/12/02 06:29:11;;;;;;;52.43;46.90;;;;;;;0.75;66.03;99440.31;4946388;29;20023;-83
2021/12/02 06:31:39;;;;;;;52.05;46.85;;;;;;;0.63;66.43;99427.78;4940226;29;20055;-84
2021/12/02 06:34:08;;;;;;;53.80;48.45;;;;;;;0.65;66.73;99443.78;4939671;29;20042;-84
2021/12/02 06:36:33;;;;;;;52.17;47.15;;;;;;;0.74;65.88;99451.28;4939620;29;20038;-84
2021/12/02 06:38:59;;;;;;;50.87;46.23;;;;;;;0.74;66.51;99450.47;4939615;29;20031;-85
2021/12/02 06:41:25;;;;;;;52.03;46.33;;;;;;;0.80;67.01;99463.91;4939668;29;20034;-85
2021/12/02 06:43:53;;;;;;;51.83;46.80;;;;;;;0.66;66.47;99453.06;4939631;29;20031;-85
2021/12/02 06:46:19;;;;;;;52.30;46.72;;;;;;;0.70;66.96;99454.69;4940062;29;20486;-84
2021/12/02 06:48:46;;;;;;;52.43;47.43;;;;;;;0.73;66.66;99469.84;4955201;29;20037;-85
2021/12/02 06:51:13;;;;;;;54.53;48.45;;;;;;;0.78;66.71;99480.81;4940149;28;20110;-85
2021/12/02 06:53:40;;;;;;;54.05;48.33;;;;;;;0.76;67.23;99474.88;4944007;28;20027;-84
2021/12/02 06:56:05;;;;;;;52.33;47.20;;;;;;;0.79;67.22;99479.94;4942782;29;20035;-83
2021/12/02 06:58:30;;;;;;;52.07;46.80;;;;;;;0.85;67.27;99484.09;4959442;29;20023;-84
2021/12/02 07:00:56;;;;;;;52.37;47.23;;;;;;;0.64;68.08;99480.06;4943526;29;20023;-85
2021/12/02 07:03:24;;;;;;;53.53;47.83;;;;;;;0.82;67.47;99497.63;4964446;28;20015;-85
2021/12/02 07:05:50;;;;;;;69.78;49.90;;;;;;;0.81;67.69;99493.44;4955534;28;20042;-83
2021/12/02 07:08:15;;;;;;;59.47;49.50;;;;;;;0.71;67.62;99489.28;4965049;28;20054;-82
2021/12/02 07:10:41;;;;;;;54.70;48.73;;;;;;;0.79;68.50;99505.25;4962154;28;20018;-83
2021/12/02 07:13:06;;;;;;;55.60;48.03;;;;;;;0.75;68.13;99508.66;4946002;28;20031;-83
2021/12/02 07:15:35;;;;;;;52.53;47.30;;;;;;;0.73;68.03;99505.28;4961610;28;20018;-84
2021/12/02 07:18:01;;;;;;;67.28;50.92;;;;;;;0.76;67.60;99519.63;4977479;28;20035;-81
2021/12/02 07:20:34;;;;;;;53.22;47.72;;;;;;;0.76;68.05;99522.97;4963357;28;20011;-82
2021/12/02 07:22:59;;;;;;;52.97;47.25;;;;;;;0.81;67.38;99518.75;4976584;28;20046;-84
2021/12/02 07:25:28;;;;;;;53.27;47.73;;;;;;;0.78;67.58;99531.44;4959702;28;20093;-82
2021/12/02 07:27:53;;;;;;;52.80;47.63;;;;;;;0.80;67.78;99532.25;4965345;28;20011;-85
2021/12/02 07:30:21;;;;;;;54.93;48.70;;;;;;;0.82;68.05;99545.72;4977759;28;20022;-84
2021/12/02 07:32:51;;;;;;;51.90;46.90;;;;;;;0.81;67.85;99543.19;4961517;28;20061;-84
2021/12/02 07:35:16;;;;;;;55.50;47.17;;;;;;;0.83;67.61;99544.88;4956542;28;20023;-86
2021/12/02 07:37:48;;;;;;;53.78;48.13;;;;;;;0.78;67.51;99544.09;4939328;29;20027;-85
2021/12/02 07:40:15;;;;;;;53.42;47.55;;;;;;;0.85;66.97;99560.88;4953466;29;20138;-84
2021/12/02 07:42:41;;;;;;;62.72;48.67;;;;;;;1.02;67.00;99567.53;4952439;28;20019;-83
2021/12/02 07:45:08;;;;;;;52.63;47.47;;;;;;;1.13;67.01;99565.75;4954302;28;20082;-86
2021/12/02 07:47:34;;;;;;;52.20;47.05;;;;;;;1.37;66.70;99573.94;4952952;28;20086;-85
2021/12/02 07:50:00;;;;;;;52.42;47.25;;;;;;;1.66;65.58;99560.16;4964859;28;20019;-85
2021/12/02 07:52:25;;;;;;;52.30;47.03;;;;;;;1.67;64.92;99572.81;4940282;29;20114;-85
2021/12/02 07:54:52;;;;;;;54.73;48.73;;;;;;;1.30;66.04;99572.34;4952925;29;20265;-87
2021/12/02 07:57:17;;;;;;;;;;;;;;;1.42;65.18;99582.38;4950807;28;20035;-86
2021/12/02 07:59:42;;;;;;;53.55;47.72;;;;;;;1.44;65.55;99575.56;4945694;28;19937;-86
2021/12/02 08:02:14;;;;;;;55.27;49.03;;;;;;;1.81;64.45;99582.78;4955097;28;20055;-86
2021/12/02 08:04:39;;;;;;;52.92;47.85;;;;;;;2.06;62.27;99554.63;4977358;28;20054;-86
2021/12/02 08:07:05;;;;;;;53.05;47.83;;;;;;;2.61;60.50;99553.84;4976148;28;20029;-84
2021/12/02 08:09:30;;;;;;;53.73;48.00;;;;;;;3.11;59.22;99604.72;4997403;28;20047;-85
2021/12/02 08:11:58;;;;;;;59.07;50.43;;;;;;;3.38;57.15;99598.34;4964174;28;20014;-86
2021/12/02 08:14:27;;;;;;;56.22;49.70;;;;;;;2.63;58.77;99592.75;4964340;28;20035;-86
2021/12/02 08:16:52;;;;;;;54.40;48.88;;;;;;;2.49;60.54;99609.88;4963159;28;20054;-85
2021/12/02 08:19:19;;;;;;;55.10;49.23;;;;;;;2.20;61.21;99621.25;4961637;28;20023;-86
2021/12/02 08:21:45;;;;;;;55.70;49.17;;;;;;;2.24;60.44;99622.03;4963594;28;20030;-85
2021/12/02 08:24:10;;;;;;;53.30;47.73;;;;;;;2.23;59.51;99621.19;4962184;28;20018;-85
2021/12/02 08:26:38;;;;;;;53.90;48.53;;;;;;;2.63;59.05;99640.97;4962033;28;20046;-86
2021/12/02 08:29:05;;;;;;;55.92;49.70;;;;;;;3.02;57.47;99620.09;4992680;28;20046;-84
2021/12/02 08:31:34;;;;;;;54.92;49.25;;;;;;;2.65;58.17;99624.03;4960828;28;20066;-86
2021/12/02 08:34:00;;;;;;;53.70;48.10;;;;;;;2.84;58.04;99661.88;4960619;28;20030;-87
2021/12/02 08:36:29;;;;;;;54.47;48.80;;;;;;;3.09;57.90;99655.56;4992102;28;20035;-86
2021/12/02 08:38:56;;;;;;;54.50;48.85;;;;;;;2.90;57.47;99662.63;4993218;28;20030;-85
2021/12/02 08:41:27;;;;;;;56.20;49.10;;;;;;;2.97;57.58;99672.69;4977243;28;20438;-86
2021/12/02 08:43:54;;;;;;;53.90;48.30;;;;;;;2.61;58.24;99680.81;4975913;28;20019;-86
2021/12/02 08:46:24;;;;;;;54.15;48.35;;;;;;;2.40;58.58;99659.03;4954387;29;20042;-86
2021/12/02 08:48:51;;;;;;;52.65;47.55;;;;;;;2.44;58.75;99682.72;4956078;29;20051;-85
2021/12/02 08:51:17;;;;;;;54.25;48.28;;;;;;;2.31;58.80;99664.25;4986520;28;20023;-86
2021/12/02 08:53:55;;;;;;;;;;;;;;;;;;;;;
2021/12/02 08:56:21;;;;;;;53.47;48.00;;;;;;;2.01;59.39;99683.19;4981100;28;20054;-86
2021/12/02 08:58:59;;;;;;;;;;;;;;;;;;;;;
2021/12/02 09:01:32;;;;;;;59.40;48.63;;;;;;;1.84;59.48;99701.94;4975428;28;20061;-86
2021/12/02 09:04:18;;;;;;;53.42;47.85;;;;;;;2.03;59.46;99711.91;4958455;28;20106;-85
2021/12/02 09:06:56;;;;;;;;;;;;;;;;;;;;;
2021/12/02 09:09:26;;;;;;;54.78;48.67;;;;;;;1.78;58.75;99695.25;4969561;28;20055;-85
2021/12/02 09:11:54;;;;;;;59.30;48.95;;;;;;;1.62;60.06;99681.88;4960036;28;20041;-87
2021/12/02 09:14:40;;;;;;;53.08;47.60;;;;;;;1.69;58.60;99697.03;4963285;28;20039;-86
2021/12/02 09:17:09;;;;;;;53.08;47.63;;;;;;;1.57;59.39;99681.03;4975468;28;20034;-84
2021/12/02 09:19:35;;;;;;;54.88;49.10;;;;;;;1.77;59.42;99718.06;4956516;28;20022;-85
2021/12/02 09:22:03;;;;;;;53.23;47.73;;;;;;;1.74;59.14;99716.41;4957548;28;20022;-85
2021/12/02 09:24:51;;;;;;;52.92;47.72;;;;;;;1.49;59.73;99695.47;4957249;28;20034;-84
2021/12/02 09:27:17;;;;;;;53.53;47.80;;;;;;;1.69;59.07;99712.25;4973312;28;20030;-84
2021/12/02 09:29:42;;;;;;;58.20;49.20;;;;;;;1.86;58.82;99740.81;4972563;28;20510;-85
2021/12/02 09:32:27;;;;;;;53.37;47.60;;;;;;;1.81;58.81;99740.00;4957143;28;20034;-86
2021/12/02 09:34:56;;;;;;;54.33;48.70;;;;;;;1.78;58.70;99722.28;4958790;28;20027;-86
2021/12/02 09:37:23;;;;;;;53.47;47.92;;;;;;;1.76;58.56;99718.91;4956335;28;20504;-85
2021/12/02 09:40:14;;;;;;;52.75;47.65;;;;;;;1.57;58.40;99723.31;4955990;28;20058;-85
2021/12/02 09:42:43;;;;;;;53.22;47.70;;;;;;;1.61;57.91;99704.69;4956701;28;20041;-86
2021/12/02 09:45:08;;;;;;;54.33;48.20;;;;;;;1.72;58.48;99735.00;4955949;28;20053;-85
2021/12/02 09:47:42;;;;;;;53.60;47.95;;;;;;;1.68;58.80;99735.91;4973812;28;20074;-85
2021/12/02 09:50:14;;;;;;;56.38;48.45;;;;;;;1.84;58.38;99755.19;4958390;28;20030;-85
2021/12/02 09:52:42;;;;;;;54.63;48.60;;;;;;;1.87;58.64;99752.63;4957143;28;20037;-85
2021/12/02 09:55:20;;;;;;;52.58;47.80;;;;;;;1.84;58.12;99762.78;4957580;28;20062;-85
2021/12/02 09:57:56;;;;;;;54.03;48.47;;;;;;;1.78;58.05;99763.72;4970768;28;20031;-84
2021/12/02 10:00:29;;;;;;;51.70;46.80;;;;;;;1.81;58.03;99772.97;4970554;28;20030;-85
2021/12/02 10:03:03;;;;;;;54.10;48.22;;;;;;;1.86;57.59;99767.84;4957367;28;20438;-86
2021/12/02 10:05:46;;;;;;;53.92;48.70;;;;;;;1.87;57.75;99762.78;4972967;28;20042;-84
2021/12/02 10:08:31;;;;;;;57.45;48.92;;;;;;;1.86;57.44;99770.41;4959397;28;20019;-86
2021/12/02 10:11:00;;;;;;;52.58;46.90;;;;;;;1.85;57.49;99773.81;4975698;28;20042;-84
2021/12/02 10:16:33;;;;;;;65.27;51.20;;;;;;;1.84;57.85;99787.31;4968181;28;20054;-85
2021/12/02 10:19:04;;;;;;;52.85;47.60;;;;;;;1.93;57.68;99787.25;4988087;28;20026;-85
2021/12/02 10:21:38;;;;;;;54.63;48.83;;;;;;;1.90;57.61;99792.34;4961324;28;20119;-86
2021/12/02 10:24:09;;;;;;;54.03;48.13;;;;;;;1.86;57.65;99799.16;4950932;28;20027;-86
2021/12/02 10:26:40;;;;;;;52.80;47.70;;;;;;;2.01;56.83;99789.72;4950254;28;20019;-85
2021/12/02 10:29:11;;;;;;;53.15;47.78;;;;;;;2.09;57.38;99800.66;4949992;28;20150;-85
2021/12/02 10:31:38;;;;;;;53.58;47.80;;;;;;;2.10;57.01;99807.38;4955123;28;20030;-86
2021/12/02 10:34:04;;;;;;;53.08;47.65;;;;;;;2.07;56.55;99810.81;4955374;28;20030;-85
2021/12/02 10:36:31;;;;;;;;;;;;;;;2.13;57.14;99815.81;4979355;28;20023;-84
2021/12/02 10:39:18;;;;;;;51.63;46.33;;;;;;;2.11;56.96;99809.91;4951140;28;19923;-85
2021/12/02 10:41:45;;;;;;;52.92;47.53;;;;;;;2.20;56.59;99821.69;4969079;29;20033;-84
2021/12/02 10:44:14;;;;;;;53.08;47.78;;;;;;;2.16;57.13;99830.16;4960645;28;20027;-85
2021/12/02 10:46:49;;;;;;;53.80;48.15;;;;;;;2.35;56.44;99819.00;4958845;29;20022;-84
2021/12/02 10:49:15;;;;;;;53.22;47.97;;;;;;;2.33;56.50;99815.63;4959725;29;20031;-87
2021/12/02 10:51:44;;;;;;;53.58;48.20;;;;;;;2.56;55.18;99819.63;4975425;28;20038;-86
2021/12/02 10:54:13;;;;;;;53.03;47.83;;;;;;;2.18;55.65;99803.94;4981226;28;20042;-85
2021/12/02 10:56:43;;;;;;;52.58;47.13;;;;;;;2.49;56.02;99834.09;4940869;29;20046;-85
2021/12/02 10:59:34;;;;;;;53.28;47.83;;;;;;;2.48;55.08;99839.19;4972439;29;20030;-85
2021/12/02 11:02:07;;;;;;;53.70;48.20;;;;;;;2.34;55.93;99840.16;4964977;28;20018;-85
2021/12/02 11:04:39;;;;;;;52.72;47.47;;;;;;;2.49;54.55;99838.34;4965441;28;20030;-85
2021/12/02 11:07:10;;;;;;;53.85;48.28;;;;;;;2.38;54.45;99847.75;4951837;28;20027;-84
2021/12/02 11:09:40;;;;;;;53.70;48.15;;;;;;;2.46;54.11;99848.50;4957300;28;20026;-86
2021/12/02 11:12:18;;;;;;;53.90;48.60;;;;;;;2.56;54.56;99850.09;4959091;28;20094;-87
2021/12/02 11:15:09;;;;;;;53.47;48.20;;;;;;;2.61;53.23;99858.53;4958366;28;20046;-86
2021/12/02 11:17:49;;;;;;;52.92;47.75;;;;;;;2.69;53.14;99861.81;4959690;28;20123;-87
2021/12/02 11:20:23;;;;;;;54.28;48.50;;;;;;;2.81;53.40;99865.09;4958554;28;20019;-86
2021/12/02 11:23:02;;;;;;;53.42;47.78;;;;;;;2.79;54.04;99867.66;4958933;28;20085;-86
2021/12/02 11:25:28;;;;;;;53.33;47.92;;;;;;;2.76;53.66;99870.22;4957167;28;20031;-87
2021/12/02 11:27:57;;;;;;;53.92;48.58;;;;;;;2.62;52.94;99860.19;4954368;28;20560;-86
2021/12/02 11:30:27;;;;;;;53.78;47.90;;;;;;;2.62;53.06;99855.13;4944497;29;20046;-86
2021/12/02 11:32:57;;;;;;;55.03;49.03;;;;;;;2.51;53.46;99872.16;4973654;28;20023;-85
2021/12/02 11:35:33;;;;;;;52.83;47.80;;;;;;;2.54;53.85;99880.59;4955522;28;20026;-86
2021/12/02 11:38:06;;;;;;;54.22;48.25;;;;;;;2.75;52.91;99873.59;4961293;28;20058;-86
2021/12/02 11:40:47;;;;;;;53.00;47.97;;;;;;;2.58;52.92;99878.88;4991447;28;20023;-86
2021/12/02 11:43:18;;;;;;;54.38;48.53;;;;;;;2.41;52.66;99855.34;4967837;28;20023;-86
2021/12/02 11:45:48;;;;;;;54.08;48.15;;;;;;;2.63;52.76;99881.38;4979467;28;20034;-87
2021/12/02 11:48:18;;;;;;;60.60;50.83;;;;;;;2.63;53.08;99887.28;4953010;28;20003;-87
2021/12/02 11:50:44;;;;;;;53.63;48.17;;;;;;;2.59;52.92;99895.75;4952265;29;20144;-87
2021/12/02 11:53:10;;;;;;;52.28;47.22;;;;;;;2.45;52.90;99877.28;4973222;28;20058;-87
2021/12/02 11:58:11;;;;;;;58.85;49.65;;;;;;;2.17;53.93;99896.13;4972824;23;20533;-87
2021/12/02 12:00:37;;;;;;;69.37;51.93;;;;;;;2.19;53.94;99875.81;5075193;23;20055;-88
2021/12/02 12:03:35;;;;;;;54.17;48.03;;;;;;;1.77;53.90;99843.16;4972584;28;20059;-88
2021/12/02 12:06:13;;;;;;;55.72;49.65;;;;;;;1.97;54.39;99854.84;4954714;29;20031;-88
2021/12/02 12:09:00;;;;;;;56.60;49.47;;;;;;;1.75;54.74;99861.75;4970392;28;20003;-86
2021/12/02 12:12:07;;;;;;;53.90;48.38;;;;;;;2.06;55.18;99927.50;4949246;28;20031;-88
2021/12/02 12:15:36;;;;;;;;;;;;;;;;;;;;;
2021/12/02 12:18:10;;;;;;;56.85;49.40;;;;;;;1.86;55.57;99898.06;4934079;28;20106;-88
2021/12/02 12:21:11;;;;;;;55.42;49.58;;;;;;;2.09;55.47;99930.03;4952164;28;20039;-87
2021/12/02 12:23:59;;;;;;;53.30;47.90;;;;;;;1.85;56.18;99908.22;4957640;28;20054;-87
2021/12/02 12:26:38;;;;;;;55.92;49.35;;;;;;;1.78;56.65;99909.91;4950136;28;20094;-88
2021/12/02 12:29:09;;;;;;;53.20;47.55;;;;;;;1.88;56.73;99946.19;4934171;29;20027;-88
2021/12/02 12:40:11;;;;;;;53.72;48.20;;;;;;;1.72;57.30;99920.94;4969243;28;20034;-88
2021/12/02 12:46:22;;;;;;;55.25;49.25;;;;;;;1.84;57.79;99940.31;4966311;29;20036;-86
2021/12/02 12:49:18;;;;;;;;;;;;;;;;;;;;;
2021/12/02 12:52:04;;;;;;;;;;;;;;;;;;;;;
2021/12/02 12:54:38;;;;;;;56.47;49.15;;;;;;;1.93;57.92;99947.88;4966377;29;20094;-89
2021/12/02 12:57:08;;;;;;;53.70;48.13;;;;;;;1.71;56.97;99900.69;4949382;29;20031;-87
2021/12/02 13:00:14;;;;;;;55.80;49.83;;;;;;;1.61;57.24;99928.59;4959116;29;20039;-88
2021/12/02 13:02:57;;;;;;;59.75;49.25;;;;;;;1.92;57.19;99946.19;4954997;28;20123;-84
2021/12/02 13:05:51;;;;;;;60.78;50.47;;;;;;;1.89;57.35;99968.19;4963870;28;20070;-87
2021/12/02 13:08:42;;;;;;;57.80;49.97;;;;;;;1.81;58.71;99980.91;4960472;28;20087;-88
2021/12/02 13:11:46;;;;;;;;;;;;;;;;;;;;;
2021/12/02 13:14:15;;;;;;;54.17;48.58;;;;;;;1.76;57.84;99957.25;4980434;28;20047;-85
2021/12/02 13:16:55;;;;;;;55.80;49.45;;;;;;;1.89;57.73;99968.19;4963408;28;20016;-84
2021/12/02 13:19:26;;;;;;;55.90;49.55;;;;;;;1.83;57.78;99961.47;4963587;28;20043;-86
2021/12/02 13:21:57;;;;;;;55.20;49.20;;;;;;;1.85;58.53;99989.34;4963940;28;20015;-87
2021/12/02 13:24:38;;;;;;;57.35;49.88;;;;;;;1.47;58.77;99950.63;4963221;28;20023;-86
2021/12/02 13:27:11;;;;;;;54.20;48.65;;;;;;;1.60;58.66;99962.41;4979460;28;20018;-85
2021/12/02 13:30:12;;;;;;;54.53;48.78;;;;;;;2.01;58.95;100025.63;4963778;28;20019;-86
2021/12/02 13:32:48;;;;;;;60.75;50.13;;;;;;;1.66;59.47;99966.63;4966059;28;20098;-86
2021/12/02 13:35:25;;;;;;;56.78;49.35;;;;;;;2.12;58.88;100027.25;4962871;28;20090;-87
2021/12/02 13:38:06;;;;;;;58.47;50.25;;;;;;;1.85;58.93;100012.19;4960898;28;20027;-87
2021/12/02 13:41:13;;;;;;;53.58;48.03;;;;;;;2.04;59.44;100033.22;4952675;28;20038;-87
2021/12/02 14:28:20;;;;;;;52.85;47.83;;;;;;;1.96;61.26;100102.59;4966520;28;20048;-88
2021/12/02 14:31:06;;;;;;;53.25;48.08;;;;;;;1.52;61.29;100050.31;4911086;29;20147;-87
2021/12/02 14:41:41;;;;;;;53.13;47.50;;;;;;;1.39;62.30;100052.03;4982175;28;20053;-87
2021/12/02 14:44:26;;;;;;;53.08;47.80;;;;;;;1.77;62.01;100122.09;4953498;28;20090;-87
2021/12/02 14:47:13;;;;;;;53.25;48.08;;;;;;;1.57;62.34;100104.38;4963488;29;20066;-87
2021/12/02 14:49:54;;;;;;;;;;;;;;;1.80;62.90;100137.28;4934972;29;20106;-87
2021/12/02 14:52:29;;;;;;;52.95;47.83;;;;;;;1.35;62.18;100063.03;4924913;29;19946;-88
2021/12/02 14:55:09;;;;;;;54.00;48.08;;;;;;;1.59;62.76;100112.84;4938888;29;20027;-87
2021/12/02 14:58:30;;;;;;;53.60;47.97;;;;;;;1.72;62.45;100149.16;4939841;29;20032;-87
2021/12/02 15:01:15;;;;;;;53.42;47.97;;;;;;;1.75;62.76;100144.06;4953938;28;20046;-88
2021/12/02 15:03:53;;;;;;;53.50;48.30;;;;;;;1.63;62.95;100123.81;4934163;29;20015;-86
2021/12/02 15:06:39;;;;;;;51.42;46.58;;;;;;;1.77;62.85;100156.75;4933221;29;20039;-87
2021/12/02 15:09:34;;;;;;;53.08;47.40;;;;;;;1.73;62.64;100160.13;4947639;29;20171;-88
2021/12/02 15:12:21;;;;;;;52.67;47.47;;;;;;;1.34;63.15;100103.59;4944938;29;20054;-87
2021/12/02 15:15:13;;;;;;;53.17;47.95;;;;;;;1.50;63.15;100150.03;4946286;29;20023;-88
2021/12/02 15:17:56;;;;;;;53.35;47.83;;;;;;;1.57;63.80;100172.81;5076954;23;20044;-88
2021/12/02 15:20:25;;;;;;;53.03;47.78;;;;;;;1.40;63.94;100159.31;4957754;28;20035;-87
2021/12/02 15:23:33;;;;;;;52.78;47.80;;;;;;;1.45;64.14;100175.38;4954543;29;20016;-87
2021/12/02 15:50:13;;;;;;;54.42;48.58;;;;;;;1.11;66.04;100204.91;4946571;29;20056;-88
2021/12/02 15:52:50;;;;;;;;;;;;;;;1.31;66.44;100233.66;4968914;29;20055;-87
2021/12/02 15:55:16;;;;;;;52.95;47.58;;;;;;;1.13;66.32;100221.81;4929502;28;19923;-87
2021/12/02 15:57:43;;;;;;;55.28;49.28;;;;;;;1.03;66.13;100220.91;4932484;29;20426;-86
2021/12/02 16:00:17;;;;;;;54.65;48.67;;;;;;;1.26;65.61;100248.84;4946459;29;20087;-87
2021/12/02 16:02:49;;;;;;;61.13;50.30;;;;;;;1.01;66.21;100229.38;4931965;29;20060;-87
2021/12/02 16:05:30;;;;;;;53.45;48.05;;;;;;;1.22;66.54;100272.47;4948989;29;20027;-88
2021/12/02 16:08:12;;;;;;;52.95;47.72;;;;;;;0.84;66.61;100212.47;4932902;29;20063;-86
2021/12/02 16:13:06;;;;;;;53.47;47.93;;;;;;;1.21;66.63;100268.25;4958145;28;20020;-88
2021/12/02 16:15:32;;;;;;;53.65;48.42;;;;;;;0.84;66.73;100217.53;4937276;28;20282;-87
2021/12/02 16:17:57;;;;;;;54.67;48.97;;;;;;;1.09;66.78;100265.69;4930130;29;20031;-88
2021/12/02 16:20:23;;;;;;;54.53;48.93;;;;;;;1.08;67.27;100266.53;4931696;29;20042;-88
2021/12/02 16:22:48;;;;;;;54.23;48.73;;;;;;;1.18;67.23;100280.09;4930151;28;20148;-88
2021/12/02 16:25:15;;;;;;;51.40;46.67;;;;;;;1.12;66.85;100288.50;4932988;29;20277;-87
2021/12/02 16:27:41;;;;;;;52.80;47.65;;;;;;;1.14;67.14;100291.03;4932546;29;20024;-88
2021/12/02 16:30:15;;;;;;;53.47;48.15;;;;;;;1.07;67.21;100285.13;4934792;29;20032;-88
2021/12/02 16:33:04;;;;;;;54.85;48.85;;;;;;;0.78;67.40;100247.88;4942500;28;20107;-88
2021/12/02 16:35:40;;;;;;;54.22;48.70;;;;;;;0.83;67.97;100266.47;4950530;29;20522;-88
2021/12/02 16:38:06;;;;;;;55.13;49.22;;;;;;;0.76;67.64;100269.78;4937054;29;20051;-88
2021/12/02 16:40:36;;;;;;;53.95;48.50;;;;;;;0.80;68.00;100271.50;4941191;29;20055;-89
2021/12/02 16:43:10;;;;;;;52.67;47.63;;;;;;;0.89;68.45;100288.41;4944177;28;20011;-88
2021/12/02 16:45:44;;;;;;;52.30;47.35;;;;;;;1.05;67.50;100317.16;4937710;29;20027;-88
2021/12/02 16:48:14;;;;;;;55.95;49.80;;;;;;;0.72;68.11;100270.63;4934483;29;20074;-88
2021/12/02 16:50:40;;;;;;;53.55;48.05;;;;;;;0.65;68.34;100262.19;4933484;29;20028;-88
2021/12/02 16:53:07;;;;;;;53.33;47.78;;;;;;;0.79;67.90;100294.28;4932940;29;20040;-87
2021/12/02 16:55:36;;;;;;;55.70;49.20;;;;;;;0.67;68.01;100270.63;4936088;29;20047;-87
2021/12/02 16:58:04;;;;;;;61.38;49.15;;;;;;;0.68;68.28;100284.09;4936273;29;20104;-87
2021/12/02 17:00:42;;;;;;;53.13;47.72;;;;;;;0.81;68.61;100292.59;4941575;29;20047;-86
2021/12/02 17:03:09;;;;;;;53.38;48.03;;;;;;;0.59;68.18;100271.41;4943295;29;20091;-88
2021/12/02 17:05:35;;;;;;;54.60;49.03;;;;;;;0.95;68.31;100335.72;4942312;29;20019;-89
2021/12/02 17:08:02;;;;;;;53.87;48.20;;;;;;;0.68;68.48;100300.13;4943806;28;20028;-87
2021/12/02 17:10:28;;;;;;;54.15;48.30;;;;;;;0.90;68.54;100339.06;4943495;28;20028;-87
2021/12/02 17:12:58;;;;;;;57.20;48.65;;;;;;;0.69;69.19;100308.59;4944036;28;20083;-88
2021/12/02 17:15:27;;;;;;;54.42;48.65;;;;;;;0.77;68.60;100319.59;4938044;29;20091;-88
2021/12/02 17:18:02;;;;;;;55.83;49.80;;;;;;;0.82;69.22;100335.66;4937335;29;20095;-88
2021/12/02 17:20:28;;;;;;;53.92;48.33;;;;;;;0.76;68.96;100329.72;4938108;29;20027;-87
2021/12/02 17:22:56;;;;;;;55.53;49.58;;;;;;;0.97;68.48;100369.50;4938878;29;20059;-88
2021/12/02 17:25:22;;;;;;;54.28;48.60;;;;;;;0.74;68.33;100341.53;4939921;29;20023;-87
2021/12/02 17:27:51;;;;;;;53.28;47.85;;;;;;;0.92;68.92;100377.06;4937115;29;20032;-87
2021/12/02 17:30:19;;;;;;;54.15;48.63;;;;;;;0.86;68.79;100372.81;4943118;29;20008;-87
2021/12/02 17:32:47;;;;;;;53.75;47.97;;;;;;;0.72;68.61;100349.97;4940625;29;20024;-88
2021/12/02 17:37:51;;;;;;;52.60;47.53;;;;;;;0.70;68.50;100345.72;5085820;23;20055;-88
2021/12/02 17:40:22;;;;;;;53.50;48.10;;;;;;;0.87;68.59;100392.22;4939256;29;20094;-87
2021/12/02 17:42:49;;;;;;;52.47;47.65;;;;;;;0.87;68.82;100382.09;4940188;29;20032;-87
2021/12/02 17:45:16;;;;;;;62.40;50.30;;;;;;;0.61;68.44;100333.88;5470332;23;20034;-88
2021/12/02 17:47:44;;;;;;;82.47;54.92;;;;;;;0.92;68.21;100382.13;5029258;23;20234;-88
2021/12/02 17:52:48;;;;;;;53.15;47.72;;;;;;;0.89;67.79;100400.69;5203286;23;20046;-87
2021/12/02 17:55:14;;;;;;;94.53;56.53;;;;;;;0.68;68.07;100357.53;4620606;23;13398899;-87
2021/12/02 17:57:39;;;;;;;65.13;51.05;;;;;;;0.85;68.14;100390.53;5002486;23;20696;-84
2021/12/02 18:00:12;;;;;;;53.97;48.27;;;;;;;0.78;66.96;100386.25;4958586;28;20049;-92
2021/12/02 18:02:40;;;;;;;60.40;50.20;;;;;;;0.72;67.27;100376.97;4976313;28;20043;-88
2021/12/02 18:05:09;;;;;;;58.08;49.20;;;;;;;0.64;67.22;100371.03;4944614;29;20147;-90
2021/12/02 18:07:35;;;;;;;55.50;49.50;;;;;;;0.51;67.67;100355.75;4999137;28;20029;-89
2021/12/02 18:10:01;;;;;;;55.53;48.47;;;;;;;0.71;67.38;100393.81;4985429;28;20031;-86
2021/12/02 18:12:27;;;;;;;53.87;48.23;;;;;;;0.71;67.88;100386.22;4969457;28;20029;-87
2021/12/02 18:14:56;;;;;;;54.33;48.50;;;;;;;0.72;67.53;100389.63;4991164;28;20755;-88
2021/12/02 18:17:24;;;;;;;56.22;49.05;;;;;;;0.71;67.50;100383.69;4987664;28;20050;-87
2021/12/02 18:19:50;;;;;;;52.53;47.60;;;;;;;0.61;67.44;100360.88;4969654;28;20085;-88
2021/12/02 18:22:17;;;;;;;56.42;48.72;;;;;;;0.70;67.75;100388.75;4991443;28;20018;-88
2021/12/02 18:24:42;;;;;;;54.42;49.00;;;;;;;0.64;68.03;100376.06;4979030;28;20034;-86
2021/12/02 18:27:08;;;;;;;62.67;50.30;;;;;;;0.61;68.27;100371.00;4956237;28;20031;-87
2021/12/02 18:29:33;;;;;;;59.73;50.27;;;;;;;0.59;68.65;100378.56;4969791;28;20446;-87
2021/12/02 18:31:58;;;;;;;55.27;49.33;;;;;;;0.54;68.84;100381.06;4987370;28;20157;-88
2021/12/02 18:34:24;;;;;;;61.53;50.07;;;;;;;0.56;69.50;100382.75;4988094;28;20140;-88
2021/12/02 18:36:49;;;;;;;54.03;48.50;;;;;;;0.40;70.36;100377.59;4970049;28;20042;-85
2021/12/02 18:39:15;;;;;;;58.50;50.90;;;;;;;0.45;70.47;100367.50;4970965;28;20031;-87
2021/12/02 18:41:47;;;;;;;55.10;48.63;;;;;;;0.27;71.77;100384.25;4964099;28;20387;-88
2021/12/02 18:44:13;;;;;;;55.50;49.65;;;;;;;0.24;71.66;100380.84;4969841;28;20303;-86
2021/12/02 18:46:44;;;;;;;65.40;51.30;;;;;;;0.19;71.58;100373.19;4967425;28;20219;-86
2021/12/02 18:49:13;;;;;;;59.38;50.75;;;;;;;0.28;71.48;100378.34;4986118;28;20061;-87
2021/12/02 18:51:43;;;;;;;54.47;48.92;;;;;;;0.33;72.44;100383.44;4966087;28;20026;-85